Time;durP1;ratioP1;P1;durP2;ratioP2;P2;SDS_P1;SDS_P2;PMS_P1;PMS_P2;Temp;Humidity;BMP_temperature;BMP_pressure;BME280_temperature;BME280_humidity;BME280_pressure;Samples;Min_cycle;Max_cycle;Signal;HPM_P1;HPM_P2
2023/07/22 20:33:49;;;;;;;5.63;2.05;;;;;;;;;;5069393;28;21009;-82
2023/07/22 20:39:22;;;;;;;4.45;1.10;;;;;;;;;;5090388;28;20410;-80
2023/07/22 20:41:52;;;;;;;3.88;0.90;;;;;;;;;;5088616;28;20048;-79
2023/07/22 20:44:23;;;;;;;4.55;2.67;;;;;;;;;;5088179;28;20410;-77
2023/07/22 20:46:53;;;;;;;4.22;0.98;;;;;;;;;;5088803;28;20048;-78
2023/07/22 20:49:23;;;;;;;5.30;1.25;;;;;;;;;;5090343;28;20044;-77
2023/07/22 20:51:52;;;;;;;4.60;1.08;;;;;;;;;;5088168;28;20057;-77
2023/07/22 20:54:23;;;;;;;2.15;1.17;;;;;;;;;;5090070;28;20044;-78
2023/07/22 20:56:53;;;;;;;3.05;1.15;;;;;;;;;;5089066;28;20052;-78
2023/07/22 20:59:23;;;;;;;7.95;1.40;;;;;;;;;;5089040;28;20402;-78
2023/07/22 21:01:53;;;;;;;6.88;1.20;;;;;;;;;;5088796;28;20044;-79
2023/07/22 21:04:23;;;;;;;5.38;1.70;;;;;;;;;;5089691;28;20376;-79
2023/07/22 21:06:54;;;;;;;5.15;1.30;;;;;;;;;;5088747;28;20435;-79
2023/07/22 21:09:24;;;;;;;2.17;0.95;;;;;;;;;;5087452;28;20052;-79
2023/07/22 21:11:54;;;;;;;2.47;1.17;;;;;;;;;;5087833;28;20047;-78
2023/07/22 21:14:24;;;;;;;4.28;1.05;;;;;;;;;;5087541;28;20062;-79
2023/07/22 21:16:55;;;;;;;4.80;1.10;;;;;;;;;;5090130;28;20469;-78
2023/07/22 21:19:25;;;;;;;16.65;11.57;;;;;;;;;;5089536;28;20055;-78
2023/07/22 21:21:55;;;;;;;417.80;249.82;;;;;;;;;;5088643;28;20055;-78
2023/07/22 21:24:26;;;;;;;117.13;53.00;;;;;;;;;;5089588;28;20036;-79
2023/07/22 21:26:57;;;;;;;233.82;116.50;;;;;;;;;;5089907;28;20052;-78
2023/07/22 21:29:27;;;;;;;10.75;3.75;;;;;;;;;;5089991;28;20052;-78
2023/07/22 21:31:57;;;;;;;7.13;3.30;;;;;;;;;;5089478;28;20481;-78
2023/07/22 21:34:27;;;;;;;18.35;13.55;;;;;;;;;;5088398;28;20048;-79
2023/07/22 21:36:58;;;;;;;5.82;2.53;;;;;;;;;;5087600;28;20048;-77
2023/07/22 21:39:31;;;;;;;8.50;4.85;;;;;;;;;;5087623;28;20048;-77
2023/07/22 21:42:02;;;;;;;45.33;25.08;;;;;;;;;;5088339;28;20063;-77
2023/07/22 21:44:32;;;;;;;9.45;5.18;;;;;;;;;;5087889;28;20059;-77
2023/07/22 21:47:03;;;;;;;5.00;3.50;;;;;;;;;;5088072;28;20186;-76
2023/07/22 21:49:33;;;;;;;4.25;2.53;;;;;;;;;;5074757;28;20068;-76
2023/07/22 21:52:03;;;;;;;5.95;1.83;;;;;;;;;;5067172;28;20044;-76
2023/07/22 21:54:33;;;;;;;8.63;2.33;;;;;;;;;;5073465;28;20044;-76
2023/07/22 21:57:04;;;;;;;6.38;2.90;;;;;;;;;;5055561;28;20419;-78
2023/07/22 21:59:34;;;;;;;6.57;2.05;;;;;;;;;;5072372;28;20044;-78
2023/07/22 22:02:05;;;;;;;5.35;1.98;;;;;;;;;;5078964;28;20410;-76
2023/07/22 22:04:35;;;;;;;8.43;2.03;;;;;;;;;;5078119;28;20051;-77
2023/07/22 22:07:06;;;;;;;3.45;1.83;;;;;;;;;;5072761;28;20052;-77
2023/07/22 22:09:38;;;;;;;3.70;1.75;;;;;;;;;;5072512;28;20047;-77
2023/07/22 22:12:09;;;;;;;107.38;56.35;;;;;;;;;;5074206;28;20139;-77
2023/07/22 22:14:41;;;;;;;42.33;23.23;;;;;;;;;;5072934;28;20036;-78
2023/07/22 22:17:12;;;;;;;7.20;4.28;;;;;;;;;;5073751;28;20040;-77
2023/07/22 22:19:45;;;;;;;21.70;16.40;;;;;;;;;;5073885;28;20040;-77
2023/07/22 22:22:15;;;;;;;15.63;12.13;;;;;;;;;;5074233;28;20055;-78
2023/07/22 22:24:46;;;;;;;12.60;6.50;;;;;;;;;;5055436;28;20052;-77
2023/07/22 22:27:17;;;;;;;41.90;33.60;;;;;;;;;;5070665;28;20052;-78
2023/07/22 22:29:48;;;;;;;12.20;3.03;;;;;;;;;;5072731;28;20049;-77
2023/07/22 22:32:19;;;;;;;5.68;1.85;;;;;;;;;;5072305;28;20052;-77
2023/07/22 22:34:50;;;;;;;5.93;2.13;;;;;;;;;;5072171;28;20056;-78
2023/07/22 22:37:21;;;;;;;2.25;1.30;;;;;;;;;;5072155;28;20056;-78
2023/07/22 22:39:51;;;;;;;3.42;1.20;;;;;;;;;;5070560;28;20052;-77
2023/07/22 22:42:21;;;;;;;5.97;1.40;;;;;;;;;;5072127;28;20056;-77
2023/07/22 22:44:51;;;;;;;2.63;1.08;;;;;;;;;;5070626;28;20060;-77
2023/07/22 22:47:21;;;;;;;4.97;1.30;;;;;;;;;;5070212;28;20048;-77
2023/07/22 22:49:52;;;;;;;2.63;1.20;;;;;;;;;;5071063;28;20057;-78
2023/07/22 22:52:22;;;;;;;5.68;1.92;;;;;;;;;;5071612;28;20056;-77
2023/07/22 22:54:52;;;;;;;3.30;1.80;;;;;;;;;;5071320;28;20415;-77
2023/07/22 22:57:23;;;;;;;10.00;4.47;;;;;;;;;;5069779;28;20442;-77
2023/07/22 22:59:53;;;;;;;7.57;5.22;;;;;;;;;;5071567;28;20045;-78
2023/07/22 23:02:26;;;;;;;4.35;2.40;;;;;;;;;;5067358;28;20132;-77
2023/07/22 23:04:58;;;;;;;12.13;7.25;;;;;;;;;;5073264;28;20066;-77
2023/07/22 23:07:29;;;;;;;8.13;4.55;;;;;;;;;;5072893;28;20533;-78
2023/07/22 23:09:59;;;;;;;3.88;1.70;;;;;;;;;;5074464;28;20041;-78
2023/07/22 23:12:30;;;;;;;2.25;1.25;;;;;;;;;;5073899;28;20410;-78
2023/07/22 23:15:00;;;;;;;4.65;1.83;;;;;;;;;;5073923;28;20521;-78
2023/07/22 23:17:30;;;;;;;4.35;1.40;;;;;;;;;;5070050;28;20466;-77
2023/07/22 23:20:00;;;;;;;4.78;1.50;;;;;;;;;;5072604;28;20048;-78
2023/07/22 23:22:31;;;;;;;4.55;1.33;;;;;;;;;;5071002;28;20051;-79
2023/07/22 23:25:01;;;;;;;6.57;1.77;;;;;;;;;;5073137;28;20494;-78
2023/07/22 23:27:32;;;;;;;4.07;1.75;;;;;;;;;;5070712;28;20490;-80
2023/07/22 23:30:06;;;;;;;2.80;1.30;;;;;;;;;;5073147;28;20132;-79
2023/07/22 23:32:36;;;;;;;4.00;1.60;;;;;;;;;;5073936;28;20045;-79
2023/07/22 23:35:08;;;;;;;8.45;1.88;;;;;;;;;;5073593;28;20048;-77
2023/07/22 23:37:39;;;;;;;5.95;1.77;;;;;;;;;;5073724;28;20056;-78
2023/07/22 23:40:10;;;;;;;4.00;1.65;;;;;;;;;;5071872;28;20052;-77
2023/07/22 23:42:40;;;;;;;5.65;1.80;;;;;;;;;;5073614;28;20067;-78
2023/07/22 23:45:11;;;;;;;5.72;1.30;;;;;;;;;;5055767;28;20064;-77
2023/07/22 23:47:43;;;;;;;5.38;2.00;;;;;;;;;;5071688;28;20052;-77
2023/07/22 23:50:15;;;;;;;4.70;1.58;;;;;;;;;;5073618;28;20044;-77
2023/07/22 23:52:45;;;;;;;4.85;1.73;;;;;;;;;;5073192;28;20032;-78
2023/07/22 23:55:15;;;;;;;4.40;1.55;;;;;;;;;;5069629;28;20490;-78
2023/07/22 23:57:46;;;;;;;3.17;1.23;;;;;;;;;;5073363;28;20150;-79
